sensor_id;sensor_type;location;lat;lon;timestamp;temperature;humidity
37285;DHT22;23172;53.550;9.964;2023-06-26T00:02:24;26.90;56.90
37285;DHT22;23172;53.550;9.964;2023-06-26T00:07:27;26.80;57.10
37285;DHT22;23172;53.550;9.964;2023-06-26T00:12:29;26.70;57.20
37285;DHT22;23172;53.550;9.964;2023-06-26T00:17:31;26.60;57.50
37285;DHT22;23172;53.550;9.964;2023-06-26T00:22:38;26.60;57.80
37285;DHT22;23172;53.550;9.964;2023-06-26T00:27:41;26.50;57.90
37285;DHT22;23172;53.550;9.964;2023-06-26T00:32:43;26.50;57.90
37285;DHT22;23172;53.550;9.964;2023-06-26T00:37:46;26.50;58.10
37285;DHT22;23172;53.550;9.964;2023-06-26T00:42:48;26.40;58.40
37285;DHT22;23172;53.550;9.964;2023-06-26T00:47:50;26.30;58.50
37285;DHT22;23172;53.550;9.964;2023-06-26T00:52:53;26.30;58.90
37285;DHT22;23172;53.550;9.964;2023-06-26T00:58:00;26.20;59.20
37285;DHT22;23172;53.550;9.964;2023-06-26T01:03:02;26.10;59.40
37285;DHT22;23172;53.550;9.964;2023-06-26T01:08:05;26.10;59.80
37285;DHT22;23172;53.550;9.964;2023-06-26T01:13:08;26.10;60.10
37285;DHT22;23172;53.550;9.964;2023-06-26T01:18:10;26.00;60.40
37285;DHT22;23172;53.550;9.964;2023-06-26T01:23:17;25.80;60.90
37285;DHT22;23172;53.550;9.964;2023-06-26T01:28:22;25.80;61.40
37285;DHT22;23172;53.550;9.964;2023-06-26T01:33:25;25.70;61.50
37285;DHT22;23172;53.550;9.964;2023-06-26T01:38:28;25.70;61.90
37285;DHT22;23172;53.550;9.964;2023-06-26T01:43:41;25.60;62.20
37285;DHT22;23172;53.550;9.964;2023-06-26T01:48:50;25.60;62.40
37285;DHT22;23172;53.550;9.964;2023-06-26T01:53:54;25.60;62.40
37285;DHT22;23172;53.550;9.964;2023-06-26T01:59:00;25.60;62.20
37285;DHT22;23172;53.550;9.964;2023-06-26T02:04:06;25.50;62.10
37285;DHT22;23172;53.550;9.964;2023-06-26T02:09:08;25.50;62.10
37285;DHT22;23172;53.550;9.964;2023-06-26T02:14:11;25.50;62.20
37285;DHT22;23172;53.550;9.964;2023-06-26T02:19:12;25.40;62.20
37285;DHT22;23172;53.550;9.964;2023-06-26T02:24:21;25.40;62.60
37285;DHT22;23172;53.550;9.964;2023-06-26T02:29:25;25.30;62.80
37285;DHT22;23172;53.550;9.964;2023-06-26T02:34:27;25.30;62.90
37285;DHT22;23172;53.550;9.964;2023-06-26T02:39:29;25.30;63.20
37285;DHT22;23172;53.550;9.964;2023-06-26T02:44:32;25.20;63.40
37285;DHT22;23172;53.550;9.964;2023-06-26T02:49:34;25.20;63.60
37285;DHT22;23172;53.550;9.964;2023-06-26T02:54:36;25.10;64.20
37285;DHT22;23172;53.550;9.964;2023-06-26T02:59:39;25.00;64.50
37285;DHT22;23172;53.550;9.964;2023-06-26T03:04:41;25.00;64.80
37285;DHT22;23172;53.550;9.964;2023-06-26T03:09:43;24.90;65.10
37285;DHT22;23172;53.550;9.964;2023-06-26T03:14:46;24.90;65.30
37285;DHT22;23172;53.550;9.964;2023-06-26T03:19:48;24.80;65.60
37285;DHT22;23172;53.550;9.964;2023-06-26T03:24:50;24.80;65.90
37285;DHT22;23172;53.550;9.964;2023-06-26T03:29:53;24.80;66.10
37285;DHT22;23172;53.550;9.964;2023-06-26T03:34:55;24.80;66.50
37285;DHT22;23172;53.550;9.964;2023-06-26T03:39:57;24.70;66.80
37285;DHT22;23172;53.550;9.964;2023-06-26T03:45:00;24.70;66.90
37285;DHT22;23172;53.550;9.964;2023-06-26T03:50:02;24.60;67.40
37285;DHT22;23172;53.550;9.964;2023-06-26T03:55:05;24.60;67.80
37285;DHT22;23172;53.550;9.964;2023-06-26T04:00:09;24.60;68.10
37285;DHT22;23172;53.550;9.964;2023-06-26T04:05:13;24.60;68.50
37285;DHT22;23172;53.550;9.964;2023-06-26T04:10:15;24.60;68.50
37285;DHT22;23172;53.550;9.964;2023-06-26T04:15:19;24.60;68.50
37285;DHT22;23172;53.550;9.964;2023-06-26T04:20:20;24.60;68.60
37285;DHT22;23172;53.550;9.964;2023-06-26T04:25:22;24.70;68.80
37285;DHT22;23172;53.550;9.964;2023-06-26T04:30:25;24.60;68.80
37285;DHT22;23172;53.550;9.964;2023-06-26T04:35:27;24.60;68.90
37285;DHT22;23172;53.550;9.964;2023-06-26T04:40:29;24.60;69.10
37285;DHT22;23172;53.550;9.964;2023-06-26T04:45:32;24.60;69.20
37285;DHT22;23172;53.550;9.964;2023-06-26T04:50:34;24.60;69.30
37285;DHT22;23172;53.550;9.964;2023-06-26T04:55:36;24.50;69.20
37285;DHT22;23172;53.550;9.964;2023-06-26T05:00:39;24.50;69.30
37285;DHT22;23172;53.550;9.964;2023-06-26T05:05:43;24.50;69.30
37285;DHT22;23172;53.550;9.964;2023-06-26T05:10:45;24.60;69.30
37285;DHT22;23172;53.550;9.964;2023-06-26T05:15:49;24.60;69.10
37285;DHT22;23172;53.550;9.964;2023-06-26T05:20:52;24.70;68.90
37285;DHT22;23172;53.550;9.964;2023-06-26T05:25:54;24.70;69.10
37285;DHT22;23172;53.550;9.964;2023-06-26T05:30:58;24.70;69.30
37285;DHT22;23172;53.550;9.964;2023-06-26T05:36:00;24.80;69.20
37285;DHT22;23172;53.550;9.964;2023-06-26T05:41:04;24.80;69.10
37285;DHT22;23172;53.550;9.964;2023-06-26T05:46:07;24.90;69.00
37285;DHT22;23172;53.550;9.964;2023-06-26T05:51:12;24.90;68.80
37285;DHT22;23172;53.550;9.964;2023-06-26T05:56:15;25.00;68.80
37285;DHT22;23172;53.550;9.964;2023-06-26T06:01:19;25.00;68.60
37285;DHT22;23172;53.550;9.964;2023-06-26T06:06:21;25.10;68.50
37285;DHT22;23172;53.550;9.964;2023-06-26T06:11:23;25.20;68.40
37285;DHT22;23172;53.550;9.964;2023-06-26T06:16:26;25.30;68.40
37285;DHT22;23172;53.550;9.964;2023-06-26T06:21:29;25.40;68.20
37285;DHT22;23172;53.550;9.964;2023-06-26T06:26:31;25.40;67.90
37285;DHT22;23172;53.550;9.964;2023-06-26T06:31:34;25.40;67.50
37285;DHT22;23172;53.550;9.964;2023-06-26T06:36:36;25.60;67.50
37285;DHT22;23172;53.550;9.964;2023-06-26T06:41:38;25.70;67.60
37285;DHT22;23172;53.550;9.964;2023-06-26T06:46:44;26.00;65.70
37285;DHT22;23172;53.550;9.964;2023-06-26T06:51:46;26.40;64.40
37285;DHT22;23172;53.550;9.964;2023-06-26T06:56:47;26.70;63.20
37285;DHT22;23172;53.550;9.964;2023-06-26T07:01:51;26.90;62.10
37285;DHT22;23172;53.550;9.964;2023-06-26T07:06:52;26.80;62.20
37285;DHT22;23172;53.550;9.964;2023-06-26T07:11:54;26.80;62.50
37285;DHT22;23172;53.550;9.964;2023-06-26T07:16:58;26.90;62.50
37285;DHT22;23172;53.550;9.964;2023-06-26T07:21:59;27.00;62.50
37285;DHT22;23172;53.550;9.964;2023-06-26T07:27:04;27.20;62.20
37285;DHT22;23172;53.550;9.964;2023-06-26T07:32:07;27.20;62.10
37285;DHT22;23172;53.550;9.964;2023-06-26T07:37:09;27.20;62.00
37285;DHT22;23172;53.550;9.964;2023-06-26T07:42:11;27.30;62.10
37285;DHT22;23172;53.550;9.964;2023-06-26T07:47:14;27.40;61.70
37285;DHT22;23172;53.550;9.964;2023-06-26T07:52:17;27.80;61.00
37285;DHT22;23172;53.550;9.964;2023-06-26T07:57:19;28.20;59.50
37285;DHT22;23172;53.550;9.964;2023-06-26T08:02:22;28.70;58.10
37285;DHT22;23172;53.550;9.964;2023-06-26T08:07:24;29.50;56.40
37285;DHT22;23172;53.550;9.964;2023-06-26T08:12:26;31.10;54.10
37285;DHT22;23172;53.550;9.964;2023-06-26T08:17:29;33.10;51.10
37285;DHT22;23172;53.550;9.964;2023-06-26T08:22:31;34.30;47.50
37285;DHT22;23172;53.550;9.964;2023-06-26T08:27:33;35.20;45.80
37285;DHT22;23172;53.550;9.964;2023-06-26T08:32:36;37.30;42.10
37285;DHT22;23172;53.550;9.964;2023-06-26T08:37:38;39.20;38.30
37285;DHT22;23172;53.550;9.964;2023-06-26T08:42:39;38.40;37.50
37285;DHT22;23172;53.550;9.964;2023-06-26T08:47:44;36.60;38.60
37285;DHT22;23172;53.550;9.964;2023-06-26T08:52:52;35.10;39.90
37285;DHT22;23172;53.550;9.964;2023-06-26T08:57:55;34.30;41.50
37285;DHT22;23172;53.550;9.964;2023-06-26T09:02:58;36.00;40.50
37285;DHT22;23172;53.550;9.964;2023-06-26T09:08:00;38.80;37.50
37285;DHT22;23172;53.550;9.964;2023-06-26T09:13:02;41.10;34.90
37285;DHT22;23172;53.550;9.964;2023-06-26T09:18:06;42.70;32.70
37285;DHT22;23172;53.550;9.964;2023-06-26T09:23:08;44.00;31.30
37285;DHT22;23172;53.550;9.964;2023-06-26T09:28:11;44.80;30.00
37285;DHT22;23172;53.550;9.964;2023-06-26T09:33:16;44.00;30.80
37285;DHT22;23172;53.550;9.964;2023-06-26T09:38:18;41.80;31.90
37285;DHT22;23172;53.550;9.964;2023-06-26T09:43:21;39.30;34.50
37285;DHT22;23172;53.550;9.964;2023-06-26T09:48:26;37.50;36.60
37285;DHT22;23172;53.550;9.964;2023-06-26T09:53:29;36.10;38.50
37285;DHT22;23172;53.550;9.964;2023-06-26T09:58:31;35.00;40.10
37285;DHT22;23172;53.550;9.964;2023-06-26T10:03:35;33.90;41.70
37285;DHT22;23172;53.550;9.964;2023-06-26T10:08:38;33.00;43.50
37285;DHT22;23172;53.550;9.964;2023-06-26T10:13:43;32.20;45.10
37285;DHT22;23172;53.550;9.964;2023-06-26T10:18:50;31.40;47.10
37285;DHT22;23172;53.550;9.964;2023-06-26T10:23:53;30.80;49.70
37285;DHT22;23172;53.550;9.964;2023-06-26T10:28:56;30.10;52.20
37285;DHT22;23172;53.550;9.964;2023-06-26T10:34:00;29.50;55.90
37285;DHT22;23172;53.550;9.964;2023-06-26T10:39:04;28.70;58.70
37285;DHT22;23172;53.550;9.964;2023-06-26T10:44:08;28.20;60.00
37285;DHT22;23172;53.550;9.964;2023-06-26T10:49:12;27.80;61.50
37285;DHT22;23172;53.550;9.964;2023-06-26T10:54:15;27.40;63.80
37285;DHT22;23172;53.550;9.964;2023-06-26T10:59:19;27.30;65.20
37285;DHT22;23172;53.550;9.964;2023-06-26T11:04:37;27.40;65.80
37285;DHT22;23172;53.550;9.964;2023-06-26T11:09:53;28.00;65.90
37285;DHT22;23172;53.550;9.964;2023-06-26T11:14:56;28.50;65.80
37285;DHT22;23172;53.550;9.964;2023-06-26T11:19:59;28.30;64.30
37285;DHT22;23172;53.550;9.964;2023-06-26T11:25:02;28.20;64.70
37285;DHT22;23172;53.550;9.964;2023-06-26T11:30:05;29.20;62.10
37285;DHT22;23172;53.550;9.964;2023-06-26T11:35:09;29.80;58.40
37285;DHT22;23172;53.550;9.964;2023-06-26T11:40:18;30.30;56.80
37285;DHT22;23172;53.550;9.964;2023-06-26T11:45:19;29.90;56.70
37285;DHT22;23172;53.550;9.964;2023-06-26T11:50:24;30.50;54.30
37285;DHT22;23172;53.550;9.964;2023-06-26T11:55:26;30.70;53.20
37285;DHT22;23172;53.550;9.964;2023-06-26T12:00:28;30.40;52.80
37285;DHT22;23172;53.550;9.964;2023-06-26T12:05:32;29.90;52.60
37285;DHT22;23172;53.550;9.964;2023-06-26T12:10:35;29.50;52.40
37285;DHT22;23172;53.550;9.964;2023-06-26T12:15:36;29.40;51.60
37285;DHT22;23172;53.550;9.964;2023-06-26T12:20:41;30.20;50.20
37285;DHT22;23172;53.550;9.964;2023-06-26T12:25:43;31.20;48.20
37285;DHT22;23172;53.550;9.964;2023-06-26T12:30:47;31.60;47.00
37285;DHT22;23172;53.550;9.964;2023-06-26T12:35:50;32.20;45.20
37285;DHT22;23172;53.550;9.964;2023-06-26T12:40:56;32.00;45.00
37285;DHT22;23172;53.550;9.964;2023-06-26T12:45:58;31.80;44.10
37285;DHT22;23172;53.550;9.964;2023-06-26T12:51:08;31.40;44.60
37285;DHT22;23172;53.550;9.964;2023-06-26T12:56:10;31.10;44.30
37285;DHT22;23172;53.550;9.964;2023-06-26T13:01:12;31.30;44.30
37285;DHT22;23172;53.550;9.964;2023-06-26T13:06:16;31.90;43.10
37285;DHT22;23172;53.550;9.964;2023-06-26T13:11:18;32.20;42.20
37285;DHT22;23172;53.550;9.964;2023-06-26T13:16:20;32.30;41.70
37285;DHT22;23172;53.550;9.964;2023-06-26T13:21:23;32.20;41.10
37285;DHT22;23172;53.550;9.964;2023-06-26T13:26:25;32.30;40.60
37285;DHT22;23172;53.550;9.964;2023-06-26T13:31:29;32.30;40.00
37285;DHT22;23172;53.550;9.964;2023-06-26T13:36:32;31.80;39.70
37285;DHT22;23172;53.550;9.964;2023-06-26T13:41:35;31.40;39.80
37285;DHT22;23172;53.550;9.964;2023-06-26T13:46:37;30.80;40.60
37285;DHT22;23172;53.550;9.964;2023-06-26T13:51:40;30.50;41.20
37285;DHT22;23172;53.550;9.964;2023-06-26T13:56:47;30.50;41.50
37285;DHT22;23172;53.550;9.964;2023-06-26T14:01:49;30.50;41.20
37285;DHT22;23172;53.550;9.964;2023-06-26T14:06:52;30.10;41.50
37285;DHT22;23172;53.550;9.964;2023-06-26T14:11:54;29.90;41.90
37285;DHT22;23172;53.550;9.964;2023-06-26T14:16:56;29.90;42.10
37285;DHT22;23172;53.550;9.964;2023-06-26T14:22:00;30.10;41.30
37285;DHT22;23172;53.550;9.964;2023-06-26T14:27:03;29.70;41.20
37285;DHT22;23172;53.550;9.964;2023-06-26T14:32:06;29.50;41.50
37285;DHT22;23172;53.550;9.964;2023-06-26T14:37:09;29.80;41.40
37285;DHT22;23172;53.550;9.964;2023-06-26T14:42:11;30.00;40.90
37285;DHT22;23172;53.550;9.964;2023-06-26T14:47:13;30.10;40.30
37285;DHT22;23172;53.550;9.964;2023-06-26T14:52:16;30.00;39.80
37285;DHT22;23172;53.550;9.964;2023-06-26T14:57:18;29.70;39.50
37285;DHT22;23172;53.550;9.964;2023-06-26T15:02:20;29.40;38.80
37285;DHT22;23172;53.550;9.964;2023-06-26T15:07:23;29.30;38.80
37285;DHT22;23172;53.550;9.964;2023-06-26T15:12:25;29.10;39.40
37285;DHT22;23172;53.550;9.964;2023-06-26T15:17:27;29.10;40.00
37285;DHT22;23172;53.550;9.964;2023-06-26T15:22:31;29.30;40.10
37285;DHT22;23172;53.550;9.964;2023-06-26T15:27:32;29.00;40.40
37285;DHT22;23172;53.550;9.964;2023-06-26T15:32:34;28.30;41.40
37285;DHT22;23172;53.550;9.964;2023-06-26T15:37:37;27.90;42.20
37285;DHT22;23172;53.550;9.964;2023-06-26T15:42:46;27.50;42.50
37285;DHT22;23172;53.550;9.964;2023-06-26T15:47:48;27.40;42.50
37285;DHT22;23172;53.550;9.964;2023-06-26T15:52:52;27.20;42.60
37285;DHT22;23172;53.550;9.964;2023-06-26T15:57:53;27.10;43.00
37285;DHT22;23172;53.550;9.964;2023-06-26T16:02:55;27.00;43.40
37285;DHT22;23172;53.550;9.964;2023-06-26T16:07:58;26.90;43.80
37285;DHT22;23172;53.550;9.964;2023-06-26T16:13:00;26.70;44.60
37285;DHT22;23172;53.550;9.964;2023-06-26T16:18:02;26.80;45.20
37285;DHT22;23172;53.550;9.964;2023-06-26T16:23:05;26.90;45.40
37285;DHT22;23172;53.550;9.964;2023-06-26T16:28:07;26.90;44.80
37285;DHT22;23172;53.550;9.964;2023-06-26T16:33:09;26.70;44.50
37285;DHT22;23172;53.550;9.964;2023-06-26T16:38:12;26.60;45.00
37285;DHT22;23172;53.550;9.964;2023-06-26T16:43:14;26.60;45.30
37285;DHT22;23172;53.550;9.964;2023-06-26T16:48:17;26.40;46.10
37285;DHT22;23172;53.550;9.964;2023-06-26T16:53:20;26.30;46.80
37285;DHT22;23172;53.550;9.964;2023-06-26T16:58:22;26.10;47.50
37285;DHT22;23172;53.550;9.964;2023-06-26T17:03:24;26.00;48.20
37285;DHT22;23172;53.550;9.964;2023-06-26T17:08:28;25.80;49.10
37285;DHT22;23172;53.550;9.964;2023-06-26T17:13:30;25.80;49.70
37285;DHT22;23172;53.550;9.964;2023-06-26T17:18:31;25.80;49.70
37285;DHT22;23172;53.550;9.964;2023-06-26T17:23:35;25.70;49.80
37285;DHT22;23172;53.550;9.964;2023-06-26T17:28:36;25.60;50.20
37285;DHT22;23172;53.550;9.964;2023-06-26T17:33:39;25.40;50.90
37285;DHT22;23172;53.550;9.964;2023-06-26T17:38:42;25.10;51.70
37285;DHT22;23172;53.550;9.964;2023-06-26T17:43:44;24.90;52.20
37285;DHT22;23172;53.550;9.964;2023-06-26T17:48:45;24.70;52.40
37285;DHT22;23172;53.550;9.964;2023-06-26T17:53:49;24.60;52.70
37285;DHT22;23172;53.550;9.964;2023-06-26T17:58:52;24.40;53.30
37285;DHT22;23172;53.550;9.964;2023-06-26T18:03:54;24.40;53.50
37285;DHT22;23172;53.550;9.964;2023-06-26T18:08:57;24.50;53.10
37285;DHT22;23172;53.550;9.964;2023-06-26T18:13:59;24.20;53.40
37285;DHT22;23172;53.550;9.964;2023-06-26T18:19:01;24.00;53.50
37285;DHT22;23172;53.550;9.964;2023-06-26T18:24:05;23.90;53.60
37285;DHT22;23172;53.550;9.964;2023-06-26T18:29:07;23.90;53.70
37285;DHT22;23172;53.550;9.964;2023-06-26T18:34:09;24.00;53.70
37285;DHT22;23172;53.550;9.964;2023-06-26T18:39:12;24.00;53.50
37285;DHT22;23172;53.550;9.964;2023-06-26T18:44:14;23.80;53.70
37285;DHT22;23172;53.550;9.964;2023-06-26T18:49:16;23.70;54.00
37285;DHT22;23172;53.550;9.964;2023-06-26T18:54:19;23.50;54.40
37285;DHT22;23172;53.550;9.964;2023-06-26T18:59:21;23.40;55.10
37285;DHT22;23172;53.550;9.964;2023-06-26T19:04:24;23.30;55.70
37285;DHT22;23172;53.550;9.964;2023-06-26T19:09:27;23.20;55.60
37285;DHT22;23172;53.550;9.964;2023-06-26T19:14:31;23.20;55.30
37285;DHT22;23172;53.550;9.964;2023-06-26T19:19:33;23.20;55.40
37285;DHT22;23172;53.550;9.964;2023-06-26T19:24:36;23.00;55.90
37285;DHT22;23172;53.550;9.964;2023-06-26T19:29:38;22.90;56.10
37285;DHT22;23172;53.550;9.964;2023-06-26T19:34:40;22.90;56.40
37285;DHT22;23172;53.550;9.964;2023-06-26T19:39:43;22.80;57.50
37285;DHT22;23172;53.550;9.964;2023-06-26T19:44:45;22.70;57.20
37285;DHT22;23172;53.550;9.964;2023-06-26T19:49:47;22.70;57.70
37285;DHT22;23172;53.550;9.964;2023-06-26T19:54:50;22.60;58.10
37285;DHT22;23172;53.550;9.964;2023-06-26T19:59:52;22.60;58.40
37285;DHT22;23172;53.550;9.964;2023-06-26T20:04:54;22.50;58.80
37285;DHT22;23172;53.550;9.964;2023-06-26T20:09:57;22.60;59.00
37285;DHT22;23172;53.550;9.964;2023-06-26T20:14:59;22.60;59.10
37285;DHT22;23172;53.550;9.964;2023-06-26T20:20:01;22.50;59.00
37285;DHT22;23172;53.550;9.964;2023-06-26T20:25:05;22.50;59.00
37285;DHT22;23172;53.550;9.964;2023-06-26T20:30:08;22.40;59.40
37285;DHT22;23172;53.550;9.964;2023-06-26T20:35:11;22.40;60.00
37285;DHT22;23172;53.550;9.964;2023-06-26T20:40:16;22.30;60.20
37285;DHT22;23172;53.550;9.964;2023-06-26T20:45:19;22.40;60.10
37285;DHT22;23172;53.550;9.964;2023-06-26T20:50:22;22.40;60.30
37285;DHT22;23172;53.550;9.964;2023-06-26T20:55:26;22.40;60.40
37285;DHT22;23172;53.550;9.964;2023-06-26T21:00:28;22.40;60.70
37285;DHT22;23172;53.550;9.964;2023-06-26T21:05:30;22.20;61.20
37285;DHT22;23172;53.550;9.964;2023-06-26T21:10:33;22.10;61.70
37285;DHT22;23172;53.550;9.964;2023-06-26T21:15:35;22.10;61.80
37285;DHT22;23172;53.550;9.964;2023-06-26T21:20:38;22.10;61.90
37285;DHT22;23172;53.550;9.964;2023-06-26T21:25:41;22.00;62.10
37285;DHT22;23172;53.550;9.964;2023-06-26T21:30:43;22.00;62.10
37285;DHT22;23172;53.550;9.964;2023-06-26T21:35:45;21.90;62.10
37285;DHT22;23172;53.550;9.964;2023-06-26T21:40:48;21.90;62.10
37285;DHT22;23172;53.550;9.964;2023-06-26T21:45:50;21.80;62.40
37285;DHT22;23172;53.550;9.964;2023-06-26T21:50:52;21.70;62.50
37285;DHT22;23172;53.550;9.964;2023-06-26T21:55:55;21.60;62.50
37285;DHT22;23172;53.550;9.964;2023-06-26T22:00:57;21.60;62.40
37285;DHT22;23172;53.550;9.964;2023-06-26T22:05:59;21.60;62.30
37285;DHT22;23172;53.550;9.964;2023-06-26T22:11:02;21.60;62.20
37285;DHT22;23172;53.550;9.964;2023-06-26T22:16:05;21.50;62.20
37285;DHT22;23172;53.550;9.964;2023-06-26T22:21:07;21.50;62.20
37285;DHT22;23172;53.550;9.964;2023-06-26T22:26:10;21.40;62.20
37285;DHT22;23172;53.550;9.964;2023-06-26T22:31:12;21.40;62.10
37285;DHT22;23172;53.550;9.964;2023-06-26T22:36:14;21.40;61.90
37285;DHT22;23172;53.550;9.964;2023-06-26T22:41:17;21.30;62.20
37285;DHT22;23172;53.550;9.964;2023-06-26T22:46:19;21.20;62.40
37285;DHT22;23172;53.550;9.964;2023-06-26T22:51:21;21.20;62.40
37285;DHT22;23172;53.550;9.964;2023-06-26T22:56:25;21.10;62.60
37285;DHT22;23172;53.550;9.964;2023-06-26T23:01:27;21.10;62.70
37285;DHT22;23172;53.550;9.964;2023-06-26T23:06:29;21.10;62.90
37285;DHT22;23172;53.550;9.964;2023-06-26T23:11:32;21.10;63.10
37285;DHT22;23172;53.550;9.964;2023-06-26T23:16:34;21.00;63.30
37285;DHT22;23172;53.550;9.964;2023-06-26T23:21:37;21.00;63.50
37285;DHT22;23172;53.550;9.964;2023-06-26T23:26:40;21.00;64.00
37285;DHT22;23172;53.550;9.964;2023-06-26T23:31:43;20.90;64.00
37285;DHT22;23172;53.550;9.964;2023-06-26T23:36:48;20.90;64.10
37285;DHT22;23172;53.550;9.964;2023-06-26T23:41:52;20.80;64.30
37285;DHT22;23172;53.550;9.964;2023-06-26T23:46:53;20.80;64.50
37285;DHT22;23172;53.550;9.964;2023-06-26T23:51:55;20.70;64.50
37285;DHT22;23172;53.550;9.964;2023-06-26T23:56:59;20.60;65.20
